IKAROS5 EFOU-EFKU

Flight info

Callsign IKAROS5
Flight time 0h 44m
Altitude 21000
Route UGMOR T95 UGLUM
Aircraft PC12/L-SDFGRY/H

Departure

Time 2026-05-07 19:29
Airport Oulu Airport (EFOU)

Arrival

Time 2026-05-07 20:13
Airport Kuopio Airport (EFKU)
Time Latitude Longitude Altitude Speed Heading
2026-05-07 19:05 64.93235 25.33660 55 ft 0 kts 283°
2026-05-07 19:21 64.93235 25.33659 55 ft 1 kts 289°
2026-05-07 19:21 64.93264 25.33686 56 ft 11 kts 57°
2026-05-07 19:22 64.93305 25.33821 55 ft 0 kts 31°
2026-05-07 19:22 64.93314 25.33834 55 ft 0 kts 30°
2026-05-07 19:24 64.93353 25.33887 53 ft 15 kts 31°
2026-05-07 19:24 64.93465 25.34041 56 ft 18 kts 32°
2026-05-07 19:24 64.93495 25.34329 52 ft 29 kts 121°
2026-05-07 19:25 64.93423 25.34608 51 ft 21 kts 120°
2026-05-07 19:25 64.93339 25.34944 51 ft 26 kts 121°
2026-05-07 19:25 64.93258 25.35257 52 ft 23 kts 120°
2026-05-07 19:25 64.93185 25.35544 51 ft 20 kts 121°
2026-05-07 19:26 64.93114 25.35823 50 ft 11 kts 122°
2026-05-07 19:26 64.93047 25.36086 49 ft 19 kts 121°
2026-05-07 19:26 64.92982 25.36342 49 ft 24 kts 121°
2026-05-07 19:26 64.92916 25.36597 48 ft 15 kts 121°
2026-05-07 19:27 64.92832 25.36933 47 ft 32 kts 120°
2026-05-07 19:27 64.92727 25.37341 46 ft 23 kts 121°
2026-05-07 19:27 64.92635 25.37699 45 ft 33 kts 122°
2026-05-07 19:27 64.92534 25.37947 44 ft 22 kts 192°
2026-05-07 19:28 64.92499 25.37896 44 ft 0 kts 227°
2026-05-07 19:28 64.92473 25.37732 43 ft 26 kts 261°
2026-05-07 19:28 64.92502 25.37471 44 ft 10 kts 300°
2026-05-07 19:29 64.92652 25.36888 44 ft 78 kts 300°
2026-05-07 19:29 64.92964 25.35582 406 ft 99 kts 296°
2026-05-07 19:29 64.93314 25.34088 1034 ft 106 kts 304°
2026-05-07 19:29 64.93709 25.32694 1825 ft 102 kts 299°
2026-05-07 19:30 64.94088 25.31249 2524 ft 104 kts 299°
2026-05-07 19:30 64.94468 25.29774 3241 ft 106 kts 300°
2026-05-07 19:30 64.94851 25.28288 3961 ft 105 kts 300°
2026-05-07 19:30 64.95235 25.26793 4665 ft 108 kts 300°
2026-05-07 19:31 64.95625 25.25275 5380 ft 108 kts 300°
2026-05-07 19:31 64.96017 25.23743 6083 ft 109 kts 301°
2026-05-07 19:31 64.96410 25.22193 6781 ft 111 kts 302°
2026-05-07 19:31 64.96910 25.20834 7418 ft 114 kts 340°
2026-05-07 19:32 64.97602 25.21539 8102 ft 119 kts 46°
2026-05-07 19:32 64.98230 25.22790 8771 ft 119 kts 30°
2026-05-07 19:32 64.98909 25.23934 9476 ft 120 kts 32°
2026-05-07 19:32 64.99527 25.25295 10148 ft 126 kts 53°
2026-05-07 19:33 64.99799 25.27242 10767 ft 134 kts 99°
2026-05-07 19:33 64.99159 25.28716 11435 ft 134 kts 155°
2026-05-07 19:33 64.98321 25.29730 12097 ft 136 kts 152°
2026-05-07 19:33 64.97484 25.30815 12773 ft 138 kts 149°
2026-05-07 19:34 64.96653 25.31986 13465 ft 140 kts 148°
2026-05-07 19:34 64.95814 25.33214 14172 ft 143 kts 147°
2026-05-07 19:34 64.94984 25.34446 14941 ft 140 kts 148°
2026-05-07 19:34 64.94152 25.35685 15657 ft 143 kts 148°
2026-05-07 19:35 64.93308 25.36937 16384 ft 144 kts 148°
2026-05-07 19:35 64.92464 25.38189 17102 ft 146 kts 148°
2026-05-07 19:35 64.91596 25.39478 17841 ft 148 kts 148°
2026-05-07 19:35 64.90716 25.40781 18561 ft 150 kts 148°
2026-05-07 19:36 64.89826 25.42101 19215 ft 152 kts 148°
2026-05-07 19:36 64.88928 25.43431 19881 ft 153 kts 148°
2026-05-07 19:36 64.88017 25.44777 20552 ft 155 kts 148°
2026-05-07 19:36 64.87067 25.46179 21047 ft 171 kts 149°
2026-05-07 19:37 64.85951 25.47811 21130 ft 209 kts 149°
2026-05-07 19:37 64.84620 25.49763 21137 ft 241 kts 149°
2026-05-07 19:37 64.83121 25.51977 21133 ft 264 kts 149°
2026-05-07 19:37 64.81526 25.54331 21125 ft 277 kts 149°
2026-05-07 19:38 64.79873 25.56760 21116 ft 283 kts 149°
2026-05-07 19:38 64.78213 25.59195 21112 ft 286 kts 149°
2026-05-07 19:38 64.76519 25.61678 21112 ft 287 kts 149°
2026-05-07 19:38 64.74820 25.64164 21113 ft 288 kts 149°
2026-05-07 19:39 64.73120 25.66648 21113 ft 288 kts 149°
2026-05-07 19:39 64.71432 25.69143 21070 ft 286 kts 150°
2026-05-07 19:39 64.69698 25.71443 21097 ft 286 kts 150°
2026-05-07 19:39 64.68026 25.73971 21099 ft 287 kts 147°
2026-05-07 19:40 64.66361 25.76536 21101 ft 287 kts 148°
2026-05-07 19:40 64.64661 25.78990 21100 ft 287 kts 149°
2026-05-07 19:40 64.62952 25.81418 21103 ft 289 kts 150°
2026-05-07 19:40 64.61237 25.83892 21105 ft 289 kts 150°
2026-05-07 19:41 64.59539 25.86358 21104 ft 286 kts 150°
2026-05-07 19:41 64.57848 25.88800 21103 ft 285 kts 150°
2026-05-07 19:41 64.56161 25.91224 21102 ft 285 kts 150°
2026-05-07 19:41 64.54470 25.93651 21098 ft 285 kts 150°
2026-05-07 19:42 64.52786 25.96069 21101 ft 285 kts 150°
2026-05-07 19:42 64.51101 25.98483 21100 ft 285 kts 150°
2026-05-07 19:42 64.49412 26.00900 21100 ft 285 kts 150°
2026-05-07 19:42 64.47729 26.03304 21100 ft 284 kts 150°
2026-05-07 19:43 64.46042 26.05711 21097 ft 284 kts 150°
2026-05-07 19:43 64.44356 26.08112 21100 ft 284 kts 150°
2026-05-07 19:43 64.42670 26.10511 21100 ft 284 kts 150°
2026-05-07 19:43 64.41003 26.12878 21098 ft 284 kts 151°
2026-05-07 19:44 64.39317 26.15268 21101 ft 284 kts 151°
2026-05-07 19:44 64.37623 26.17668 21100 ft 285 kts 151°
2026-05-07 19:44 64.35934 26.20057 21100 ft 285 kts 151°
2026-05-07 19:44 64.34247 26.22440 21101 ft 285 kts 151°
2026-05-07 19:45 64.32554 26.24825 21098 ft 285 kts 151°
2026-05-07 19:45 64.30864 26.27206 21098 ft 285 kts 151°
2026-05-07 19:45 64.29175 26.29580 21098 ft 285 kts 151°
2026-05-07 19:45 64.27495 26.31940 21099 ft 280 kts 152°
2026-05-07 19:46 64.25833 26.34270 21098 ft 278 kts 152°
2026-05-07 19:46 64.24176 26.36588 21098 ft 279 kts 152°
2026-05-07 19:46 64.22510 26.38915 21099 ft 280 kts 152°
2026-05-07 19:46 64.20863 26.41215 21100 ft 281 kts 152°
2026-05-07 19:47 64.19194 26.43542 21101 ft 281 kts 152°
2026-05-07 19:47 64.17523 26.45869 21102 ft 281 kts 152°
2026-05-07 19:47 64.15843 26.48203 21100 ft 283 kts 152°
2026-05-07 19:47 64.14150 26.50551 21099 ft 286 kts 152°
2026-05-07 19:48 64.12447 26.52913 21099 ft 287 kts 152°
2026-05-07 19:48 64.10740 26.55275 21101 ft 287 kts 152°
2026-05-07 19:48 64.09032 26.57637 21101 ft 287 kts 152°
2026-05-07 19:48 64.07325 26.59992 21101 ft 287 kts 152°
2026-05-07 19:49 64.05617 26.62344 21104 ft 287 kts 152°
2026-05-07 19:49 64.03909 26.64695 21104 ft 287 kts 152°
2026-05-07 19:49 64.02201 26.67043 21102 ft 287 kts 152°
2026-05-07 19:49 64.00494 26.69384 21102 ft 287 kts 152°
2026-05-07 19:50 63.98785 26.71725 21101 ft 287 kts 152°
2026-05-07 19:50 63.97075 26.74064 21101 ft 287 kts 152°
2026-05-07 19:50 63.95365 26.76402 21091 ft 286 kts 153°
2026-05-07 19:50 63.93677 26.78707 21094 ft 280 kts 153°
2026-05-07 19:51 63.92012 26.80974 21093 ft 278 kts 153°
2026-05-07 19:51 63.90348 26.83233 21092 ft 279 kts 153°
2026-05-07 19:51 63.88702 26.85467 21090 ft 280 kts 153°
2026-05-07 19:51 63.87030 26.87738 21087 ft 280 kts 153°
2026-05-07 19:52 63.85357 26.90005 21092 ft 280 kts 153°
2026-05-07 19:52 63.83683 26.92269 21093 ft 280 kts 153°
2026-05-07 19:52 63.82003 26.94538 21094 ft 280 kts 153°
2026-05-07 19:52 63.80328 26.96797 21094 ft 280 kts 153°
2026-05-07 19:53 63.78650 26.99054 21096 ft 280 kts 153°
2026-05-07 19:53 63.76974 27.01308 21096 ft 281 kts 153°
2026-05-07 19:53 63.75297 27.03562 21090 ft 280 kts 153°
2026-05-07 19:53 63.73618 27.05818 21090 ft 280 kts 153°
2026-05-07 19:54 63.71940 27.08065 21088 ft 280 kts 153°
2026-05-07 19:54 63.70263 27.10307 21088 ft 280 kts 153°
2026-05-07 19:54 63.68581 27.12553 21090 ft 282 kts 153°
2026-05-07 19:54 63.66880 27.14820 21090 ft 286 kts 153°
2026-05-07 19:55 63.65165 27.17106 21092 ft 287 kts 153°
2026-05-07 19:55 63.63446 27.19393 21093 ft 287 kts 153°
2026-05-07 19:55 63.61728 27.21679 20999 ft 286 kts 154°
2026-05-07 19:55 63.60045 27.23912 20676 ft 282 kts 154°
2026-05-07 19:56 63.58363 27.26138 20319 ft 279 kts 154°
2026-05-07 19:56 63.56690 27.28348 19954 ft 278 kts 154°
2026-05-07 19:56 63.55030 27.30542 19593 ft 277 kts 154°
2026-05-07 19:56 63.53368 27.32734 19232 ft 277 kts 154°
2026-05-07 19:57 63.51703 27.34925 18871 ft 277 kts 154°
2026-05-07 19:57 63.50039 27.37115 18507 ft 277 kts 153°
2026-05-07 19:57 63.48377 27.39298 18118 ft 277 kts 153°
2026-05-07 19:57 63.46709 27.41486 17743 ft 278 kts 153°
2026-05-07 19:58 63.45040 27.43672 17375 ft 279 kts 153°
2026-05-07 19:58 63.43363 27.45867 17005 ft 279 kts 153°
2026-05-07 19:58 63.41683 27.48061 16635 ft 280 kts 153°
2026-05-07 19:58 63.40002 27.50256 16265 ft 281 kts 153°
2026-05-07 19:59 63.38315 27.52453 15894 ft 281 kts 153°
2026-05-07 19:59 63.36629 27.54647 15523 ft 280 kts 153°
2026-05-07 19:59 63.34947 27.56833 15152 ft 279 kts 153°
2026-05-07 19:59 63.33271 27.59009 14784 ft 278 kts 153°
2026-05-07 20:00 63.31601 27.61174 14419 ft 277 kts 154°
2026-05-07 20:00 63.29936 27.63326 14053 ft 275 kts 154°
2026-05-07 20:00 63.28307 27.65431 13678 ft 273 kts 153°
2026-05-07 20:00 63.26665 27.67551 13307 ft 272 kts 153°
2026-05-07 20:01 63.25032 27.69656 12948 ft 271 kts 153°
2026-05-07 20:01 63.23405 27.71750 12591 ft 270 kts 153°
2026-05-07 20:01 63.21783 27.73835 12225 ft 269 kts 154°
2026-05-07 20:01 63.20166 27.75912 11869 ft 268 kts 154°
2026-05-07 20:02 63.19097 27.77284 11635 ft 268 kts 154°
2026-05-07 20:02 63.17483 27.79348 11282 ft 268 kts 154°
2026-05-07 20:02 63.15873 27.81409 10929 ft 267 kts 154°
2026-05-07 20:02 63.14267 27.83461 10583 ft 266 kts 154°
2026-05-07 20:03 63.12665 27.85505 10224 ft 265 kts 154°
2026-05-07 20:03 63.11070 27.87537 9863 ft 264 kts 154°
2026-05-07 20:03 63.09482 27.89560 9504 ft 262 kts 154°
2026-05-07 20:03 63.07905 27.91565 9158 ft 260 kts 154°
2026-05-07 20:04 63.06342 27.93549 8817 ft 258 kts 154°
2026-05-07 20:04 63.04788 27.95520 8478 ft 257 kts 154°
2026-05-07 20:04 63.03214 27.97315 8139 ft 253 kts 161°
2026-05-07 20:04 63.01580 27.98781 7809 ft 254 kts 161°
2026-05-07 20:05 62.99955 28.00272 7467 ft 252 kts 161°
2026-05-07 20:05 62.98343 28.01763 7147 ft 251 kts 161°
2026-05-07 20:05 62.96735 28.03237 6818 ft 250 kts 161°
2026-05-07 20:05 62.95134 28.04699 6486 ft 248 kts 160°
2026-05-07 20:06 62.93547 28.06149 6161 ft 246 kts 160°
2026-05-07 20:06 62.91969 28.07591 5822 ft 246 kts 160°
2026-05-07 20:06 62.90388 28.08919 5366 ft 246 kts 169°
2026-05-07 20:06 62.88829 28.08750 5011 ft 216 kts 196°
2026-05-07 20:07 62.87507 28.07579 4731 ft 194 kts 214°
2026-05-07 20:07 62.86516 28.05823 4503 ft 174 kts 229°
2026-05-07 20:07 62.85838 28.03764 4266 ft 163 kts 244°
2026-05-07 20:07 62.85400 28.01517 4034 ft 159 kts 250°
2026-05-07 20:08 62.85027 27.99247 3791 ft 157 kts 260°
2026-05-07 20:08 62.85045 27.96894 3594 ft 155 kts 282°
2026-05-07 20:08 62.85452 27.94755 3386 ft 148 kts 303°
2026-05-07 20:08 62.86209 27.93283 3189 ft 143 kts 329°
2026-05-07 20:09 62.87047 27.92419 3017 ft 127 kts 332°
2026-05-07 20:09 62.87831 27.91650 2852 ft 122 kts 333°
2026-05-07 20:09 62.88593 27.90926 2779 ft 116 kts 334°
2026-05-07 20:10 62.90094 27.89534 2777 ft 120 kts 333°
2026-05-07 20:10 62.90864 27.88826 2773 ft 117 kts 334°
2026-05-07 20:10 62.91613 27.88144 2659 ft 122 kts 334°
2026-05-07 20:10 62.92389 27.87461 2200 ft 118 kts 336°
2026-05-07 20:11 62.93151 27.86857 1820 ft 111 kts 340°
2026-05-07 20:11 62.93847 27.86215 1632 ft 119 kts 333°
2026-05-07 20:11 62.94592 27.85459 1375 ft 112 kts 335°
2026-05-07 20:11 62.95308 27.84817 1199 ft 110 kts 336°
2026-05-07 20:12 62.96024 27.84140 1081 ft 116 kts 334°
2026-05-07 20:12 62.96756 27.83430 921 ft 111 kts 335°
2026-05-07 20:12 62.97455 27.82820 795 ft 107 kts 335°
2026-05-07 20:12 62.98114 27.82231 733 ft 88 kts 333°
2026-05-07 20:13 62.98646 27.81716 615 ft 83 kts 332°
2026-05-07 20:13 62.99162 27.81221 432 ft 83 kts 333°
2026-05-07 20:13 62.99671 27.80761 329 ft 73 kts 334°
2026-05-07 20:13 62.99996 27.80447 311 ft 32 kts 332°
2026-05-07 20:14 63.00196 27.80250 306 ft 34 kts 337°
2026-05-07 20:14 63.00437 27.80021 306 ft 42 kts 332°
2026-05-07 20:14 63.00720 27.79754 318 ft 34 kts 337°
2026-05-07 20:14 63.00780 27.79682 321 ft 6 kts 190°
2026-05-07 20:15 63.00682 27.79635 317 ft 25 kts 256°
2026-05-07 20:15 63.00602 27.79290 317 ft 31 kts 235°
2026-05-07 20:15 63.00505 27.79114 316 ft 9 kts 214°
2026-05-07 20:15 63.00410 27.79059 316 ft 15 kts 241°
2026-05-07 20:16 63.00407 27.79027 316 ft 0 kts 246°